sensor_id;sensor_type;location;lat;lon;timestamp;pressure;altitude;pressure_sealevel;temperature;humidity
46347;BME280;32057;47.830;19.046;2023-02-18T00:02:14;100383.28;;;9.53;100.00
46347;BME280;32057;47.830;19.046;2023-02-18T00:04:39;100387.00;;;9.64;100.00
46347;BME280;32057;47.830;19.046;2023-02-18T00:07:05;100384.44;;;9.66;100.00
46347;BME280;32057;47.830;19.046;2023-02-18T00:09:30;100385.31;;;9.66;100.00
46347;BME280;32057;47.830;19.046;2023-02-18T00:11:56;100370.59;;;9.65;100.00
46347;BME280;32057;47.830;19.046;2023-02-18T00:14:21;100368.00;;;9.65;100.00
46347;BME280;32057;47.830;19.046;2023-02-18T00:16:46;100368.72;;;9.60;100.00
46347;BME280;32057;47.830;19.046;2023-02-18T00:19:16;100356.63;;;9.62;100.00
46347;BME280;32057;47.830;19.046;2023-02-18T00:21:42;100358.38;;;9.61;100.00
46347;BME280;32057;47.830;19.046;2023-02-18T00:24:09;100353.84;;;9.54;100.00
46347;BME280;32057;47.830;19.046;2023-02-18T00:26:36;100351.91;;;9.45;100.00
46347;BME280;32057;47.830;19.046;2023-02-18T00:29:01;100355.31;;;9.44;100.00
46347;BME280;32057;47.830;19.046;2023-02-18T00:31:30;100357.22;;;9.50;100.00
46347;BME280;32057;47.830;19.046;2023-02-18T00:33:56;100362.50;;;9.53;100.00
46347;BME280;32057;47.830;19.046;2023-02-18T00:36:23;100357.06;;;9.44;100.00
46347;BME280;32057;47.830;19.046;2023-02-18T00:38:54;100358.84;;;9.45;100.00
46347;BME280;32057;47.830;19.046;2023-02-18T00:41:21;100356.69;;;9.30;100.00
46347;BME280;32057;47.830;19.046;2023-02-18T00:43:46;100355.88;;;9.31;100.00
46347;BME280;32057;47.830;19.046;2023-02-18T00:46:12;100358.00;;;9.14;100.00
46347;BME280;32057;47.830;19.046;2023-02-18T00:48:38;100339.41;;;8.97;100.00
46347;BME280;32057;47.830;19.046;2023-02-18T00:51:05;100353.22;;;8.96;100.00
46347;BME280;32057;47.830;19.046;2023-02-18T00:53:31;100348.81;;;8.93;100.00
46347;BME280;32057;47.830;19.046;2023-02-18T00:55:57;100343.16;;;9.08;100.00
46347;BME280;32057;47.830;19.046;2023-02-18T00:58:22;100325.34;;;9.22;100.00
46347;BME280;32057;47.830;19.046;2023-02-18T01:00:48;100312.41;;;9.24;100.00
46347;BME280;32057;47.830;19.046;2023-02-18T01:03:14;100321.16;;;9.27;100.00
46347;BME280;32057;47.830;19.046;2023-02-18T01:05:40;100325.91;;;9.10;100.00
46347;BME280;32057;47.830;19.046;2023-02-18T01:08:07;100318.59;;;9.29;100.00
46347;BME280;32057;47.830;19.046;2023-02-18T01:10:34;100311.94;;;9.39;100.00
46347;BME280;32057;47.830;19.046;2023-02-18T01:13:00;100307.75;;;9.45;100.00
46347;BME280;32057;47.830;19.046;2023-02-18T01:15:28;100314.19;;;9.61;100.00
46347;BME280;32057;47.830;19.046;2023-02-18T01:17:54;100305.81;;;9.74;100.00
46347;BME280;32057;47.830;19.046;2023-02-18T01:20:19;100312.16;;;9.86;100.00
46347;BME280;32057;47.830;19.046;2023-02-18T01:22:45;100317.91;;;10.10;100.00
46347;BME280;32057;47.830;19.046;2023-02-18T01:25:10;100303.78;;;10.37;100.00
46347;BME280;32057;47.830;19.046;2023-02-18T01:27:36;100296.94;;;10.42;100.00
46347;BME280;32057;47.830;19.046;2023-02-18T01:30:03;100300.59;;;10.50;100.00
46347;BME280;32057;47.830;19.046;2023-02-18T01:32:29;100293.78;;;10.57;100.00
46347;BME280;32057;47.830;19.046;2023-02-18T01:34:55;100294.00;;;10.69;100.00
46347;BME280;32057;47.830;19.046;2023-02-18T01:37:20;100288.88;;;10.72;100.00
46347;BME280;32057;47.830;19.046;2023-02-18T01:39:45;100293.28;;;10.76;100.00
46347;BME280;32057;47.830;19.046;2023-02-18T01:42:24;100284.72;;;10.84;100.00
46347;BME280;32057;47.830;19.046;2023-02-18T01:44:50;100296.09;;;10.87;100.00
46347;BME280;32057;47.830;19.046;2023-02-18T01:47:16;100281.59;;;11.02;100.00
46347;BME280;32057;47.830;19.046;2023-02-18T01:49:42;100273.94;;;11.11;100.00
46347;BME280;32057;47.830;19.046;2023-02-18T01:52:21;100277.38;;;11.08;100.00
46347;BME280;32057;47.830;19.046;2023-02-18T01:54:54;100271.16;;;11.02;100.00
46347;BME280;32057;47.830;19.046;2023-02-18T01:57:22;100266.75;;;10.98;100.00
46347;BME280;32057;47.830;19.046;2023-02-18T02:00:00;100265.91;;;10.97;100.00
46347;BME280;32057;47.830;19.046;2023-02-18T02:02:28;100266.75;;;10.98;100.00
46347;BME280;32057;47.830;19.046;2023-02-18T02:04:54;100275.59;;;11.06;100.00
46347;BME280;32057;47.830;19.046;2023-02-18T02:07:21;100252.44;;;11.23;100.00
46347;BME280;32057;47.830;19.046;2023-02-18T02:09:49;100257.81;;;11.33;100.00
46347;BME280;32057;47.830;19.046;2023-02-18T02:12:24;100257.84;;;11.35;100.00
46347;BME280;32057;47.830;19.046;2023-02-18T02:15:21;100253.47;;;11.32;100.00
46347;BME280;32057;47.830;19.046;2023-02-18T02:18:09;100249.97;;;11.30;100.00
46347;BME280;32057;47.830;19.046;2023-02-18T02:20:47;100265.47;;;11.24;100.00
46347;BME280;32057;47.830;19.046;2023-02-18T02:23:39;100260.41;;;11.30;100.00
46347;BME280;32057;47.830;19.046;2023-02-18T02:26:19;100266.44;;;11.29;100.00
46347;BME280;32057;47.830;19.046;2023-02-18T02:40:00;100274.50;;;11.45;100.00
46347;BME280;32057;47.830;19.046;2023-02-18T02:51:11;100280.56;;;11.44;100.00
46347;BME280;32057;47.830;19.046;2023-02-18T02:53:40;100260.63;;;11.44;100.00
46347;BME280;32057;47.830;19.046;2023-02-18T02:56:13;100269.38;;;11.51;100.00
46347;BME280;32057;47.830;19.046;2023-02-18T02:58:39;100272.03;;;11.52;100.00
46347;BME280;32057;47.830;19.046;2023-02-18T03:01:23;100275.47;;;11.51;100.00
46347;BME280;32057;47.830;19.046;2023-02-18T03:09:23;100290.50;;;11.69;100.00
46347;BME280;32057;47.830;19.046;2023-02-18T03:11:59;100267.13;;;11.72;100.00
46347;BME280;32057;47.830;19.046;2023-02-18T03:14:45;100288.91;;;11.77;100.00
46347;BME280;32057;47.830;19.046;2023-02-18T03:17:45;100290.91;;;11.94;99.29
46347;BME280;32057;47.830;19.046;2023-02-18T03:22:46;100282.19;;;11.92;99.22
46347;BME280;32057;47.830;19.046;2023-02-18T03:25:13;100289.16;;;11.93;99.68
46347;BME280;32057;47.830;19.046;2023-02-18T03:27:43;100303.88;;;11.89;99.45
46347;BME280;32057;47.830;19.046;2023-02-18T03:30:17;100291.59;;;11.84;100.00
46347;BME280;32057;47.830;19.046;2023-02-18T03:32:47;100280.25;;;11.79;100.00
46347;BME280;32057;47.830;19.046;2023-02-18T03:35:17;100295.84;;;11.77;100.00
46347;BME280;32057;47.830;19.046;2023-02-18T03:37:53;100301.03;;;11.75;100.00
46347;BME280;32057;47.830;19.046;2023-02-18T03:40:26;100320.16;;;11.74;100.00
46347;BME280;32057;47.830;19.046;2023-02-18T03:42:51;100312.09;;;11.62;100.00
46347;BME280;32057;47.830;19.046;2023-02-18T03:45:17;100308.59;;;11.59;100.00
46347;BME280;32057;47.830;19.046;2023-02-18T03:47:42;100322.44;;;11.56;100.00
46347;BME280;32057;47.830;19.046;2023-02-18T03:50:08;100326.75;;;11.52;100.00
46347;BME280;32057;47.830;19.046;2023-02-18T03:52:33;100316.31;;;11.54;100.00
46347;BME280;32057;47.830;19.046;2023-02-18T03:55:06;100329.44;;;11.59;100.00
46347;BME280;32057;47.830;19.046;2023-02-18T03:57:33;100325.38;;;11.74;100.00
46347;BME280;32057;47.830;19.046;2023-02-18T03:59:58;100313.25;;;11.80;100.00
46347;BME280;32057;47.830;19.046;2023-02-18T04:02:24;100318.50;;;11.81;99.96
46347;BME280;32057;47.830;19.046;2023-02-18T04:04:49;100333.19;;;11.74;100.00
46347;BME280;32057;47.830;19.046;2023-02-18T04:07:15;100322.69;;;11.71;100.00
46347;BME280;32057;47.830;19.046;2023-02-18T04:09:40;100335.69;;;11.68;100.00
46347;BME280;32057;47.830;19.046;2023-02-18T04:12:06;100346.78;;;11.58;100.00
46347;BME280;32057;47.830;19.046;2023-02-18T04:14:31;100351.34;;;11.68;100.00
46347;BME280;32057;47.830;19.046;2023-02-18T04:16:57;100354.94;;;11.78;100.00
46347;BME280;32057;47.830;19.046;2023-02-18T04:19:24;100350.63;;;11.79;100.00
46347;BME280;32057;47.830;19.046;2023-02-18T04:21:50;100355.72;;;11.71;100.00
46347;BME280;32057;47.830;19.046;2023-02-18T04:24:15;100369.75;;;11.79;100.00
46347;BME280;32057;47.830;19.046;2023-02-18T04:26:41;100361.13;;;11.83;100.00
46347;BME280;32057;47.830;19.046;2023-02-18T04:29:06;100360.16;;;11.76;100.00
46347;BME280;32057;47.830;19.046;2023-02-18T04:31:32;100364.47;;;11.74;100.00
46347;BME280;32057;47.830;19.046;2023-02-18T04:33:57;100358.38;;;11.75;100.00
46347;BME280;32057;47.830;19.046;2023-02-18T04:36:22;100374.13;;;11.82;100.00
46347;BME280;32057;47.830;19.046;2023-02-18T04:38:50;100361.94;;;11.81;100.00
46347;BME280;32057;47.830;19.046;2023-02-18T04:41:16;100361.84;;;11.74;100.00
46347;BME280;32057;47.830;19.046;2023-02-18T04:43:44;100373.09;;;11.72;100.00
46347;BME280;32057;47.830;19.046;2023-02-18T04:46:09;100379.22;;;11.72;100.00
46347;BME280;32057;47.830;19.046;2023-02-18T04:48:35;100368.78;;;11.72;100.00
46347;BME280;32057;47.830;19.046;2023-02-18T04:51:01;100388.72;;;11.72;100.00
46347;BME280;32057;47.830;19.046;2023-02-18T04:53:26;100385.19;;;11.67;100.00
46347;BME280;32057;47.830;19.046;2023-02-18T04:55:52;100382.63;;;11.68;100.00
46347;BME280;32057;47.830;19.046;2023-02-18T04:58:19;100386.06;;;11.67;100.00
46347;BME280;32057;47.830;19.046;2023-02-18T05:00:45;100365.31;;;11.73;100.00
46347;BME280;32057;47.830;19.046;2023-02-18T05:03:10;100381.69;;;11.65;100.00
46347;BME280;32057;47.830;19.046;2023-02-18T05:05:36;100383.38;;;11.63;100.00
46347;BME280;32057;47.830;19.046;2023-02-18T05:08:02;100383.38;;;11.63;100.00
46347;BME280;32057;47.830;19.046;2023-02-18T05:10:28;100381.69;;;11.65;100.00
46347;BME280;32057;47.830;19.046;2023-02-18T05:12:54;100396.38;;;11.61;100.00
46347;BME280;32057;47.830;19.046;2023-02-18T05:15:19;100391.09;;;11.58;100.00
46347;BME280;32057;47.830;19.046;2023-02-18T05:17:45;100401.53;;;11.58;100.00
46347;BME280;32057;47.830;19.046;2023-02-18T05:20:10;100413.63;;;11.53;100.00
46347;BME280;32057;47.830;19.046;2023-02-18T05:22:36;100425.44;;;11.35;100.00
46347;BME280;32057;47.830;19.046;2023-02-18T05:25:02;100414.16;;;11.35;100.00
46347;BME280;32057;47.830;19.046;2023-02-18T05:27:28;100426.22;;;11.30;100.00
46347;BME280;32057;47.830;19.046;2023-02-18T05:29:53;100434.78;;;11.24;100.00
46347;BME280;32057;47.830;19.046;2023-02-18T05:32:19;100425.22;;;11.23;100.00
46347;BME280;32057;47.830;19.046;2023-02-18T05:34:44;100432.88;;;11.15;100.00
46347;BME280;32057;47.830;19.046;2023-02-18T05:37:10;100425.75;;;11.05;100.00
46347;BME280;32057;47.830;19.046;2023-02-18T05:39:37;100436.31;;;11.13;100.00
46347;BME280;32057;47.830;19.046;2023-02-18T05:42:03;100438.97;;;11.16;100.00
46347;BME280;32057;47.830;19.046;2023-02-18T05:44:28;100437.16;;;11.12;100.00
46347;BME280;32057;47.830;19.046;2023-02-18T05:46:54;100440.41;;;11.02;100.00
46347;BME280;32057;47.830;19.046;2023-02-18T05:49:20;100455.19;;;11.01;100.00
46347;BME280;32057;47.830;19.046;2023-02-18T05:51:46;100462.94;;;11.00;100.00
46347;BME280;32057;47.830;19.046;2023-02-18T05:54:11;100459.50;;;11.01;100.00
46347;BME280;32057;47.830;19.046;2023-02-18T05:56:36;100464.66;;;10.98;100.00
46347;BME280;32057;47.830;19.046;2023-02-18T05:59:02;100474.94;;;10.91;100.00
46347;BME280;32057;47.830;19.046;2023-02-18T06:01:27;100467.66;;;10.75;100.00
46347;BME280;32057;47.830;19.046;2023-02-18T06:03:53;100476.09;;;10.65;100.00
46347;BME280;32057;47.830;19.046;2023-02-18T06:06:18;100481.09;;;10.55;100.00
46347;BME280;32057;47.830;19.046;2023-02-18T06:08:43;100484.41;;;10.50;100.00
46347;BME280;32057;47.830;19.046;2023-02-18T06:11:09;100484.00;;;10.31;100.00
46347;BME280;32057;47.830;19.046;2023-02-18T06:13:36;100475.50;;;10.40;100.00
46347;BME280;32057;47.830;19.046;2023-02-18T06:16:02;100477.47;;;10.49;100.00
46347;BME280;32057;47.830;19.046;2023-02-18T06:18:28;100473.06;;;10.46;100.00
46347;BME280;32057;47.830;19.046;2023-02-18T06:20:53;100480.81;;;10.43;100.00
46347;BME280;32057;47.830;19.046;2023-02-18T06:23:19;100468.56;;;10.39;100.00
46347;BME280;32057;47.830;19.046;2023-02-18T06:25:47;100471.06;;;10.34;100.00
46347;BME280;32057;47.830;19.046;2023-02-18T06:28:13;100479.44;;;10.23;100.00
46347;BME280;32057;47.830;19.046;2023-02-18T06:30:38;100474.91;;;10.15;100.00
46347;BME280;32057;47.830;19.046;2023-02-18T06:33:04;100487.28;;;10.26;100.00
46347;BME280;32057;47.830;19.046;2023-02-18T06:35:29;100481.16;;;10.24;100.00
46347;BME280;32057;47.830;19.046;2023-02-18T06:37:55;100481.22;;;10.25;100.00
46347;BME280;32057;47.830;19.046;2023-02-18T06:40:20;100478.50;;;10.21;100.00
46347;BME280;32057;47.830;19.046;2023-02-18T06:42:46;100498.22;;;10.12;100.00
46347;BME280;32057;47.830;19.046;2023-02-18T06:45:11;100501.78;;;10.14;100.00
46347;BME280;32057;47.830;19.046;2023-02-18T06:47:37;100496.88;;;10.28;100.00
46347;BME280;32057;47.830;19.046;2023-02-18T06:50:03;100491.81;;;10.31;100.00
46347;BME280;32057;47.830;19.046;2023-02-18T06:52:28;100495.34;;;10.35;100.00
46347;BME280;32057;47.830;19.046;2023-02-18T06:54:55;100511.94;;;10.40;100.00
46347;BME280;32057;47.830;19.046;2023-02-18T06:57:20;100511.94;;;10.40;100.00
46347;BME280;32057;47.830;19.046;2023-02-18T06:59:45;100510.25;;;10.42;100.00
46347;BME280;32057;47.830;19.046;2023-02-18T07:02:14;100515.50;;;10.44;100.00
46347;BME280;32057;47.830;19.046;2023-02-18T07:04:39;100522.47;;;10.46;100.00
46347;BME280;32057;47.830;19.046;2023-02-18T07:07:05;100530.41;;;10.51;100.00
46347;BME280;32057;47.830;19.046;2023-02-18T07:09:30;100517.59;;;10.59;100.00
46347;BME280;32057;47.830;19.046;2023-02-18T07:11:56;100519.56;;;10.69;100.00
46347;BME280;32057;47.830;19.046;2023-02-18T07:14:21;100513.00;;;10.86;100.00
46347;BME280;32057;47.830;19.046;2023-02-18T07:16:48;100521.16;;;11.02;100.00
46347;BME280;32057;47.830;19.046;2023-02-18T07:19:14;100519.81;;;11.21;100.00
46347;BME280;32057;47.830;19.046;2023-02-18T07:21:39;100522.75;;;11.38;100.00
46347;BME280;32057;47.830;19.046;2023-02-18T07:24:05;100513.34;;;11.44;100.00
46347;BME280;32057;47.830;19.046;2023-02-18T07:26:30;100515.22;;;11.51;100.00
46347;BME280;32057;47.830;19.046;2023-02-18T07:28:56;100520.47;;;11.53;100.00
46347;BME280;32057;47.830;19.046;2023-02-18T07:31:21;100514.47;;;11.57;100.00
46347;BME280;32057;47.830;19.046;2023-02-18T07:33:47;100518.00;;;11.62;100.00
46347;BME280;32057;47.830;19.046;2023-02-18T07:36:12;100519.88;;;11.66;100.00
46347;BME280;32057;47.830;19.046;2023-02-18T07:38:37;100519.91;;;11.69;100.00
46347;BME280;32057;47.830;19.046;2023-02-18T07:41:03;100530.41;;;11.72;100.00
46347;BME280;32057;47.830;19.046;2023-02-18T07:43:32;100516.69;;;11.83;100.00
46347;BME280;32057;47.830;19.046;2023-02-18T07:45:57;100515.91;;;11.88;100.00
46347;BME280;32057;47.830;19.046;2023-02-18T07:48:22;100507.41;;;11.97;100.00
46347;BME280;32057;47.830;19.046;2023-02-18T07:50:48;100515.41;;;12.06;100.00
46347;BME280;32057;47.830;19.046;2023-02-18T07:53:15;100519.91;;;12.17;100.00
46347;BME280;32057;47.830;19.046;2023-02-18T07:55:40;100516.34;;;12.11;100.00
46347;BME280;32057;47.830;19.046;2023-02-18T07:58:29;100507.06;;;12.29;100.00
46347;BME280;32057;47.830;19.046;2023-02-18T08:00:55;100501.94;;;12.35;100.00
46347;BME280;32057;47.830;19.046;2023-02-18T08:03:29;100519.41;;;12.39;100.00
46347;BME280;32057;47.830;19.046;2023-02-18T08:05:56;100514.31;;;12.47;100.00
46347;BME280;32057;47.830;19.046;2023-02-18T08:08:26;100510.84;;;12.46;100.00
46347;BME280;32057;47.830;19.046;2023-02-18T08:10:54;100513.38;;;12.43;100.00
46347;BME280;32057;47.830;19.046;2023-02-18T08:13:20;100506.50;;;12.50;100.00
46347;BME280;32057;47.830;19.046;2023-02-18T08:15:45;100507.44;;;12.53;100.00
46347;BME280;32057;47.830;19.046;2023-02-18T08:18:17;100515.38;;;12.61;100.00
46347;BME280;32057;47.830;19.046;2023-02-18T08:20:43;100516.75;;;12.38;100.00
46347;BME280;32057;47.830;19.046;2023-02-18T08:23:09;100509.91;;;12.43;100.00
46347;BME280;32057;47.830;19.046;2023-02-18T08:25:35;100516.91;;;12.47;100.00
46347;BME280;32057;47.830;19.046;2023-02-18T08:28:01;100512.38;;;12.35;100.00
46347;BME280;32057;47.830;19.046;2023-02-18T08:30:27;100513.13;;;12.26;100.00
46347;BME280;32057;47.830;19.046;2023-02-18T08:32:52;100514.88;;;12.27;100.00
46347;BME280;32057;47.830;19.046;2023-02-18T08:35:17;100507.19;;;12.37;100.00
46347;BME280;32057;47.830;19.046;2023-02-18T08:37:43;100501.41;;;12.58;100.00
46347;BME280;32057;47.830;19.046;2023-02-18T08:40:10;100484.38;;;12.83;100.00
46347;BME280;32057;47.830;19.046;2023-02-18T08:42:36;100490.69;;;12.99;100.00
46347;BME280;32057;47.830;19.046;2023-02-18T08:45:02;100501.44;;;13.23;100.00
46347;BME280;32057;47.830;19.046;2023-02-18T08:47:27;100498.22;;;13.43;100.00
46347;BME280;32057;47.830;19.046;2023-02-18T08:49:53;100494.88;;;13.56;99.08
46347;BME280;32057;47.830;19.046;2023-02-18T08:52:19;100495.84;;;13.64;99.23
46347;BME280;32057;47.830;19.046;2023-02-18T08:54:44;100500.03;;;13.50;97.86
46347;BME280;32057;47.830;19.046;2023-02-18T08:57:09;100491.91;;;13.27;98.66
46347;BME280;32057;47.830;19.046;2023-02-18T08:59:35;100479.78;;;13.30;98.94
46347;BME280;32057;47.830;19.046;2023-02-18T09:02:00;100485.81;;;13.26;99.29
46347;BME280;32057;47.830;19.046;2023-02-18T09:04:26;100483.16;;;13.25;99.98
46347;BME280;32057;47.830;19.046;2023-02-18T09:06:51;100481.41;;;13.22;99.38
46347;BME280;32057;47.830;19.046;2023-02-18T09:09:17;100488.50;;;13.31;99.75
46347;BME280;32057;47.830;19.046;2023-02-18T09:11:43;100490.31;;;13.37;99.91
46347;BME280;32057;47.830;19.046;2023-02-18T09:14:09;100491.84;;;13.24;100.00
46347;BME280;32057;47.830;19.046;2023-02-18T09:16:35;100483.47;;;13.49;99.09
46347;BME280;32057;47.830;19.046;2023-02-18T09:19:02;100492.94;;;13.38;99.59
46347;BME280;32057;47.830;19.046;2023-02-18T09:21:28;100491.38;;;13.55;98.78
46347;BME280;32057;47.830;19.046;2023-02-18T09:23:54;100491.47;;;13.63;96.35
46347;BME280;32057;47.830;19.046;2023-02-18T09:26:20;100492.38;;;13.67;95.33
46347;BME280;32057;47.830;19.046;2023-02-18T09:28:51;100485.47;;;13.75;95.24
46347;BME280;32057;47.830;19.046;2023-02-18T09:31:19;100500.31;;;13.74;94.33
46347;BME280;32057;47.830;19.046;2023-02-18T09:33:48;100495.16;;;13.85;92.14
46347;BME280;32057;47.830;19.046;2023-02-18T09:36:14;100491.69;;;13.88;93.87
46347;BME280;32057;47.830;19.046;2023-02-18T09:38:40;100485.59;;;13.89;93.02
46347;BME280;32057;47.830;19.046;2023-02-18T09:41:09;100490.75;;;13.81;92.49
46347;BME280;32057;47.830;19.046;2023-02-18T09:43:44;100487.19;;;13.73;91.64
46347;BME280;32057;47.830;19.046;2023-02-18T09:46:18;100494.97;;;13.65;91.56
46347;BME280;32057;47.830;19.046;2023-02-18T09:48:46;100494.88;;;13.56;91.91
46347;BME280;32057;47.830;19.046;2023-02-18T09:51:14;100486.06;;;13.49;93.13
46347;BME280;32057;47.830;19.046;2023-02-18T09:53:41;100498.19;;;13.41;94.39
46347;BME280;32057;47.830;19.046;2023-02-18T09:56:13;100498.13;;;13.35;94.46
46347;BME280;32057;47.830;19.046;2023-02-18T09:58:39;100484.13;;;13.31;95.17
46347;BME280;32057;47.830;19.046;2023-02-18T10:01:14;100494.59;;;13.31;95.37
46347;BME280;32057;47.830;19.046;2023-02-18T10:03:42;100488.19;;;13.09;96.31
46347;BME280;32057;47.830;19.046;2023-02-18T10:06:17;100493.47;;;13.12;96.48
46347;BME280;32057;47.830;19.046;2023-02-18T10:08:46;100485.56;;;13.08;97.62
46347;BME280;32057;47.830;19.046;2023-02-18T10:11:16;100487.19;;;13.00;98.55
46347;BME280;32057;47.830;19.046;2023-02-18T10:13:43;100480.31;;;13.08;98.67
46347;BME280;32057;47.830;19.046;2023-02-18T10:16:15;100482.09;;;13.09;98.27
46347;BME280;32057;47.830;19.046;2023-02-18T10:18:48;100490.56;;;12.91;99.81
46347;BME280;32057;47.830;19.046;2023-02-18T10:21:18;100482.88;;;13.00;99.85
46347;BME280;32057;47.830;19.046;2023-02-18T10:24:04;100489.81;;;12.98;100.00
46347;BME280;32057;47.830;19.046;2023-02-18T10:26:33;100488.00;;;12.95;100.00
46347;BME280;32057;47.830;19.046;2023-02-18T10:28:59;100483.63;;;12.93;100.00
46347;BME280;32057;47.830;19.046;2023-02-18T10:31:33;100476.66;;;12.90;100.00
46347;BME280;32057;47.830;19.046;2023-02-18T10:34:21;100474.03;;;12.92;100.00
46347;BME280;32057;47.830;19.046;2023-02-18T10:36:58;100469.56;;;12.83;100.00
46347;BME280;32057;47.830;19.046;2023-02-18T10:47:43;100459.19;;;12.86;100.00
46347;BME280;32057;47.830;19.046;2023-02-18T10:50:37;100451.44;;;12.95;100.00
46347;BME280;32057;47.830;19.046;2023-02-18T10:55:40;100441.81;;;12.91;100.00
46347;BME280;32057;47.830;19.046;2023-02-18T10:58:30;100443.47;;;12.83;100.00
46347;BME280;32057;47.830;19.046;2023-02-18T11:00:57;100445.31;;;12.90;100.00
46347;BME280;32057;47.830;19.046;2023-02-18T11:03:38;100444.59;;;13.02;99.31
46347;BME280;32057;47.830;19.046;2023-02-18T11:06:04;100429.88;;;13.12;98.74
46347;BME280;32057;47.830;19.046;2023-02-18T11:08:43;100437.78;;;13.17;99.03
46347;BME280;32057;47.830;19.046;2023-02-18T11:11:15;100421.31;;;13.22;97.03
46347;BME280;32057;47.830;19.046;2023-02-18T11:13:41;100432.59;;;13.21;95.89
46347;BME280;32057;47.830;19.046;2023-02-18T11:16:07;100445.66;;;13.21;95.45
46347;BME280;32057;47.830;19.046;2023-02-18T11:18:39;100429.72;;;13.00;97.02
46347;BME280;32057;47.830;19.046;2023-02-18T11:21:23;100426.31;;;13.05;96.63
46347;BME280;32057;47.830;19.046;2023-02-18T11:23:52;100431.56;;;13.07;97.23
46347;BME280;32057;47.830;19.046;2023-02-18T11:26:26;100427.25;;;13.12;96.34
46347;BME280;32057;47.830;19.046;2023-02-18T11:28:57;100422.06;;;13.13;96.62
46347;BME280;32057;47.830;19.046;2023-02-18T11:31:33;100412.50;;;13.14;96.12
46347;BME280;32057;47.830;19.046;2023-02-18T11:34:02;100410.69;;;13.10;96.60
46347;BME280;32057;47.830;19.046;2023-02-18T11:36:33;100417.69;;;13.12;96.35
46347;BME280;32057;47.830;19.046;2023-02-18T11:39:04;100407.19;;;13.09;97.64
46347;BME280;32057;47.830;19.046;2023-02-18T11:41:36;100400.22;;;13.10;96.60
46347;BME280;32057;47.830;19.046;2023-02-18T11:44:03;100402.78;;;13.02;97.78
46347;BME280;32057;47.830;19.046;2023-02-18T11:46:30;100394.88;;;12.98;98.25
46347;BME280;32057;47.830;19.046;2023-02-18T11:49:10;100399.97;;;12.87;100.00
46347;BME280;32057;47.830;19.046;2023-02-18T11:51:38;100396.91;;;12.48;100.00
46347;BME280;32057;47.830;19.046;2023-02-18T11:54:27;100385.56;;;12.49;100.00
46347;BME280;32057;47.830;19.046;2023-02-18T11:57:01;100388.91;;;12.39;100.00
46347;BME280;32057;47.830;19.046;2023-02-18T11:59:31;100389.78;;;12.40;100.00
46347;BME280;32057;47.830;19.046;2023-02-18T12:04:29;100387.97;;;12.32;100.00
46347;BME280;32057;47.830;19.046;2023-02-18T12:07:11;100380.06;;;12.28;100.00
46347;BME280;32057;47.830;19.046;2023-02-18T12:09:48;100389.59;;;12.24;100.00
46347;BME280;32057;47.830;19.046;2023-02-18T12:14:46;100370.66;;;12.39;100.00
46347;BME280;32057;47.830;19.046;2023-02-18T12:26:28;100352.53;;;12.50;100.00
46347;BME280;32057;47.830;19.046;2023-02-18T12:32:18;100360.81;;;12.20;100.00
46347;BME280;32057;47.830;19.046;2023-02-18T12:35:06;100345.13;;;12.17;100.00
46347;BME280;32057;47.830;19.046;2023-02-18T12:43:09;100320.09;;;12.31;100.00
46347;BME280;32057;47.830;19.046;2023-02-18T12:58:51;100299.25;;;13.12;100.00
46347;BME280;32057;47.830;19.046;2023-02-18T13:04:23;100281.91;;;13.20;100.00
46347;BME280;32057;47.830;19.046;2023-02-18T13:12:38;100256.81;;;13.34;100.00
46347;BME280;32057;47.830;19.046;2023-02-18T13:18:17;100263.03;;;13.52;100.00
46347;BME280;32057;47.830;19.046;2023-02-18T13:20:49;100263.09;;;13.61;100.00
46347;BME280;32057;47.830;19.046;2023-02-18T13:23:21;100261.41;;;13.69;100.00
46347;BME280;32057;47.830;19.046;2023-02-18T13:25:51;100258.06;;;13.92;100.00
46347;BME280;32057;47.830;19.046;2023-02-18T13:33:50;100239.81;;;14.07;97.61
46347;BME280;32057;47.830;19.046;2023-02-18T13:41:26;100221.50;;;14.13;96.51
46347;BME280;32057;47.830;19.046;2023-02-18T13:43:52;100225.00;;;14.15;96.44
46347;BME280;32057;47.830;19.046;2023-02-18T13:46:22;100223.25;;;14.11;93.24
46347;BME280;32057;47.830;19.046;2023-02-18T13:49:04;100212.81;;;14.18;94.01
46347;BME280;32057;47.830;19.046;2023-02-18T13:51:32;100200.63;;;14.23;92.86
46347;BME280;32057;47.830;19.046;2023-02-18T13:56:40;100183.16;;;14.23;90.46
46347;BME280;32057;47.830;19.046;2023-02-18T13:59:19;100185.81;;;14.28;89.93
46347;BME280;32057;47.830;19.046;2023-02-18T14:01:49;100167.50;;;14.31;87.54
46347;BME280;32057;47.830;19.046;2023-02-18T14:12:40;100164.84;;;14.22;87.79
46347;BME280;32057;47.830;19.046;2023-02-18T14:17:49;100150.03;;;14.21;87.38
46347;BME280;32057;47.830;19.046;2023-02-18T14:25:39;100150.00;;;14.10;88.80
46347;BME280;32057;47.830;19.046;2023-02-18T14:33:31;100137.72;;;13.95;89.61
46347;BME280;32057;47.830;19.046;2023-02-18T14:41:55;100125.50;;;13.88;88.71
46347;BME280;32057;47.830;19.046;2023-02-18T14:49:48;100119.38;;;13.86;89.25
46347;BME280;32057;47.830;19.046;2023-02-18T14:52:58;100128.09;;;13.83;90.26
46347;BME280;32057;47.830;19.046;2023-02-18T14:55:33;100125.47;;;13.79;90.63